createdAt,value
2023-04-18T00:00:27.098Z,102745.06
2023-04-18T00:02:55.025Z,102747.50
2023-04-18T00:05:21.997Z,102750.25
2023-04-18T00:07:48.515Z,102745.41
2023-04-18T00:10:14.905Z,102746.00
2023-04-18T00:12:41.388Z,102747.66
2023-04-18T00:15:08.989Z,102752.13
2023-04-18T00:17:38.349Z,102751.41
2023-04-18T00:20:11.076Z,102750.06
2023-04-18T00:22:42.549Z,102747.72
2023-04-18T00:25:10.713Z,102748.94
2023-04-18T00:27:38.288Z,102753.22
2023-04-18T00:30:06.232Z,102742.22
2023-04-18T00:32:32.625Z,102744.31
2023-04-18T00:34:59.105Z,102748.69
2023-04-18T00:37:25.860Z,102750.97
2023-04-18T00:39:53.901Z,102742.22
2023-04-18T00:42:25.397Z,102747.75
2023-04-18T00:44:51.836Z,102740.94
2023-04-18T00:47:18.382Z,102739.50
2023-04-18T00:49:45.412Z,102743.38
2023-04-18T00:52:12.480Z,102744.06
2023-04-18T00:54:40.120Z,102749.03
2023-04-18T00:57:06.571Z,102749.13
2023-04-18T00:59:35.990Z,102745.97
2023-04-18T01:02:03.812Z,102743.34
2023-04-18T01:04:32.620Z,102753.81
2023-04-18T01:06:59.472Z,102747.91
2023-04-18T01:09:26.035Z,102744.34
2023-04-18T01:11:52.802Z,102744.84
2023-04-18T01:14:19.940Z,102754.66
2023-04-18T01:16:46.539Z,102745.84
2023-04-18T01:19:19.032Z,102745.66
2023-04-18T01:21:45.471Z,102748.16
2023-04-18T01:24:17.034Z,102750.63
2023-04-18T01:26:45.643Z,102741.25
2023-04-18T01:29:12.232Z,102749.47
2023-04-18T01:31:39.599Z,102745.84
2023-04-18T01:34:06.402Z,102751.25
2023-04-18T01:36:33.650Z,102737.50
2023-04-18T01:39:00.259Z,102739.38
2023-04-18T01:41:29.120Z,102749.03
2023-04-18T01:43:55.627Z,102743.41
2023-04-18T01:46:22.097Z,102748.81
2023-04-18T01:48:48.448Z,102741.84
2023-04-18T01:51:14.801Z,102745.03
2023-04-18T01:53:41.376Z,102745.78
2023-04-18T01:56:07.812Z,102745.72
2023-04-18T01:58:34.127Z,102749.44
2023-04-18T02:01:00.510Z,102747.81
2023-04-18T02:03:27.090Z,102745.59
2023-04-18T02:05:53.605Z,102746.34
2023-04-18T02:08:19.937Z,102750.63
2023-04-18T02:10:46.267Z,102745.38
2023-04-18T02:13:12.703Z,102746.94
2023-04-18T02:15:39.005Z,102748.41
2023-04-18T02:18:05.629Z,102742.00
2023-04-18T02:20:33.476Z,102741.88
2023-04-18T02:23:00.381Z,102743.34
2023-04-18T02:25:28.730Z,102746.44
2023-04-18T02:27:55.594Z,102744.13
2023-04-18T02:30:22.101Z,102745.69
2023-04-18T02:32:52.125Z,102745.53
2023-04-18T02:35:19.305Z,102740.13
2023-04-18T02:37:45.626Z,102754.41
2023-04-18T02:40:12.709Z,102746.00
2023-04-18T02:42:39.047Z,102741.00
2023-04-18T02:45:05.863Z,102730.41
2023-04-18T02:47:40.454Z,102736.50
2023-04-18T02:50:13.848Z,102739.56
2023-04-18T02:52:40.159Z,102752.56
2023-04-18T02:55:06.591Z,102752.22
2023-04-18T02:57:33.025Z,102743.38
2023-04-18T02:59:59.574Z,102748.75
2023-04-18T03:02:26.049Z,102733.44
2023-04-18T03:04:52.806Z,102749.13
2023-04-18T03:07:19.191Z,102746.47
2023-04-18T03:09:45.461Z,102748.66
2023-04-18T03:12:11.733Z,102748.78
2023-04-18T03:14:38.032Z,102748.00
2023-04-18T03:17:04.345Z,102757.44
2023-04-18T03:19:31.905Z,102755.28
2023-04-18T03:21:59.024Z,102760.16
2023-04-18T03:24:25.356Z,102769.34
2023-04-18T03:26:51.715Z,102756.34
2023-04-18T03:29:18.099Z,102769.06
2023-04-18T03:31:44.511Z,102762.94
2023-04-18T03:34:11.100Z,102760.25
2023-04-18T03:36:37.542Z,102767.09
2023-04-18T03:39:03.823Z,102766.31
2023-04-18T03:41:30.340Z,102763.34
2023-04-18T03:43:56.643Z,102768.66
2023-04-18T03:46:24.534Z,102764.75
2023-04-18T03:48:51.045Z,102761.69
2023-04-18T03:51:17.695Z,102767.16
2023-04-18T03:53:44.021Z,102769.72
2023-04-18T03:56:10.776Z,102777.66
2023-04-18T03:58:37.102Z,102766.50
2023-04-18T04:01:03.649Z,102777.09
2023-04-18T04:03:30.018Z,102776.22
2023-04-18T04:05:56.379Z,102774.03
2023-04-18T04:08:22.670Z,102780.91
2023-04-18T04:10:48.960Z,102774.81
2023-04-18T04:13:15.419Z,102787.03
2023-04-18T04:15:41.999Z,102774.44
2023-04-18T04:18:09.003Z,102780.13
2023-04-18T04:20:35.507Z,102777.06
2023-04-18T04:23:02.180Z,102779.44
2023-04-18T04:25:28.669Z,102776.31
2023-04-18T04:27:55.217Z,102780.19
2023-04-18T04:30:21.510Z,102777.81
2023-04-18T04:32:47.836Z,102775.56
2023-04-18T04:35:14.174Z,102793.84
2023-04-18T04:37:41.280Z,102795.88
2023-04-18T04:40:09.122Z,102800.03
2023-04-18T04:42:35.845Z,102801.13
2023-04-18T04:45:02.753Z,102796.25
2023-04-18T04:47:29.121Z,102794.72
2023-04-18T04:49:55.448Z,102796.41
2023-04-18T04:52:21.807Z,102804.63
2023-04-18T04:54:48.163Z,102798.94
2023-04-18T04:57:15.533Z,102800.69
2023-04-18T04:59:41.800Z,102816.75
2023-04-18T05:02:08.236Z,102812.34
2023-04-18T05:04:34.785Z,102808.13
2023-04-18T05:07:01.270Z,102811.00
2023-04-18T05:09:27.694Z,102819.13
2023-04-18T05:11:54.023Z,102816.84
2023-04-18T05:14:20.798Z,102811.50
2023-04-18T05:16:47.662Z,102815.38
2023-04-18T05:19:13.991Z,102825.63
2023-04-18T05:21:40.835Z,102814.63
2023-04-18T05:24:07.100Z,102819.25
2023-04-18T05:26:33.431Z,102814.25
2023-04-18T05:28:59.733Z,102811.50
2023-04-18T05:31:27.110Z,102811.59
2023-04-18T05:33:53.704Z,102815.44
2023-04-18T05:36:20.394Z,102838.41
2023-04-18T05:38:46.733Z,102823.72
2023-04-18T05:41:13.027Z,102819.47
2023-04-18T05:43:39.354Z,102821.88
2023-04-18T05:46:05.714Z,102826.94
2023-04-18T05:48:32.078Z,102826.69
2023-04-18T05:50:58.524Z,102832.16
2023-04-18T05:53:24.807Z,102833.69
2023-04-18T05:55:51.139Z,102839.03
2023-04-18T05:58:17.445Z,102840.69
2023-04-18T06:00:43.860Z,102835.38
2023-04-18T06:03:11.368Z,102840.66
2023-04-18T06:05:38.228Z,102840.69
2023-04-18T06:08:04.682Z,102839.94
2023-04-18T06:10:30.972Z,102841.34
2023-04-18T06:12:57.444Z,102848.31
2023-04-18T06:15:23.763Z,102844.25
2023-04-18T06:17:50.592Z,102843.69
2023-04-18T06:20:16.924Z,102847.59
2023-04-18T06:22:43.255Z,102842.16
2023-04-18T06:25:10.048Z,102849.06
2023-04-18T06:27:37.150Z,102845.16
2023-04-18T06:30:04.529Z,102842.56
2023-04-18T06:32:30.970Z,102845.22
2023-04-18T06:34:57.290Z,102843.00
2023-04-18T06:37:23.620Z,102842.50
2023-04-18T06:39:49.945Z,102850.25
2023-04-18T06:42:16.476Z,102863.72
2023-04-18T06:44:43.188Z,102862.22
2023-04-18T06:47:09.649Z,102863.53
2023-04-18T06:49:36.070Z,102859.84
2023-04-18T06:52:02.379Z,102849.06
2023-04-18T06:54:28.671Z,102854.63
2023-04-18T06:56:55.033Z,102864.97
2023-04-18T06:59:21.629Z,102864.97
2023-04-18T07:01:48.115Z,102854.50
2023-04-18T07:04:14.697Z,102857.97
2023-04-18T07:06:42.225Z,102875.94
2023-04-18T07:09:08.570Z,102866.06
2023-04-18T07:11:34.880Z,102868.88
2023-04-18T07:14:01.246Z,102868.22
2023-04-18T07:16:27.711Z,102869.72
2023-04-18T07:18:54.113Z,102880.19
2023-04-18T07:21:20.505Z,102866.94
2023-04-18T07:23:46.803Z,102868.88
2023-04-18T07:26:13.702Z,102877.84
2023-04-18T07:28:40.015Z,102871.53
2023-04-18T07:31:10.973Z,102872.63
2023-04-18T07:33:37.972Z,102875.56
2023-04-18T07:36:04.432Z,102877.00
2023-04-18T07:38:30.748Z,102874.81
2023-04-18T07:40:58.640Z,102873.72
2023-04-18T07:43:25.118Z,102867.66
2023-04-18T07:45:51.771Z,102875.31
2023-04-18T07:48:18.343Z,102886.25
2023-04-18T07:50:45.044Z,102891.44
2023-04-18T07:53:11.610Z,102889.50
2023-04-18T07:55:38.000Z,102884.81
2023-04-18T07:58:04.406Z,102896.19
2023-04-18T08:00:32.584Z,102880.91
2023-04-18T08:02:59.243Z,102890.13
2023-04-18T08:05:25.934Z,102887.91
2023-04-18T08:07:52.810Z,102889.88
2023-04-18T08:10:19.628Z,102891.16
2023-04-18T08:12:47.126Z,102879.78
2023-04-18T08:15:13.596Z,102890.72
2023-04-18T08:17:42.754Z,102896.59
2023-04-18T08:20:09.525Z,102899.25
2023-04-18T08:22:39.770Z,102884.63
2023-04-18T08:25:13.328Z,102893.63
2023-04-18T08:27:39.736Z,102893.94
2023-04-18T08:30:07.042Z,102889.81
2023-04-18T08:32:33.561Z,102887.19
2023-04-18T08:35:00.818Z,102892.03
2023-04-18T08:37:27.957Z,102892.66
2023-04-18T08:39:54.359Z,102903.78
2023-04-18T08:42:22.681Z,102888.28
2023-04-18T08:44:49.775Z,102894.50
2023-04-18T08:47:16.397Z,102898.56
2023-04-18T08:49:45.451Z,102896.41
2023-04-18T08:52:14.151Z,102891.94
2023-04-18T08:54:46.620Z,102897.03
2023-04-18T08:57:28.419Z,102896.09
2023-04-18T08:59:55.190Z,102904.13
2023-04-18T09:02:23.293Z,102896.66
2023-04-18T09:04:52.666Z,102896.00
2023-04-18T09:07:21.803Z,102894.97
2023-04-18T09:09:50.177Z,102893.81
2023-04-18T09:12:44.626Z,102900.34
2023-04-18T09:15:14.082Z,102888.66
2023-04-18T09:17:43.420Z,102899.66
2023-04-18T09:20:10.870Z,102903.69
2023-04-18T09:22:51.347Z,102898.97
2023-04-18T09:25:34.791Z,102911.59
2023-04-18T09:28:05.689Z,102885.44
2023-04-18T09:30:36.992Z,102883.72
2023-04-18T09:33:05.396Z,102892.22
2023-04-18T09:35:31.841Z,102894.34
2023-04-18T09:37:58.312Z,102883.94
2023-04-18T09:40:24.724Z,102891.19
2023-04-18T09:42:54.318Z,102893.03
2023-04-18T09:45:21.657Z,102878.84
2023-04-18T09:47:48.227Z,102902.28
2023-04-18T09:50:16.798Z,102886.44
2023-04-18T09:52:44.822Z,102878.34
2023-04-18T09:55:13.173Z,102883.59
2023-04-18T09:57:42.562Z,102882.19
2023-04-18T10:00:16.431Z,102894.13
2023-04-18T10:06:31.634Z,102877.88
2023-04-18T10:08:58.164Z,102880.03
2023-04-18T10:11:24.910Z,102882.91
2023-04-18T10:13:53.899Z,102880.28
2023-04-18T10:16:20.518Z,102889.59
2023-04-18T10:18:49.417Z,102885.94
2023-04-18T10:21:15.917Z,102889.22
2023-04-18T10:23:42.519Z,102885.56
2023-04-18T10:26:10.446Z,102889.72
2023-04-18T10:28:59.479Z,102894.06
2023-04-18T10:31:27.457Z,102900.13
2023-04-18T10:36:28.108Z,102892.50
2023-04-18T10:38:56.025Z,102875.16
2023-04-18T10:41:26.375Z,102871.03
2023-04-18T10:44:11.685Z,102887.41
2023-04-18T10:46:38.793Z,102874.44
2023-04-18T10:49:18.194Z,102874.06
2023-04-18T10:51:50.376Z,102892.13
2023-04-18T10:54:30.850Z,102883.34
2023-04-18T10:57:00.039Z,102867.69
2023-04-18T10:59:26.931Z,102882.69
2023-04-18T11:01:59.880Z,102890.59
2023-04-18T11:04:26.454Z,102876.22
2023-04-18T11:06:55.879Z,102893.50
2023-04-18T11:09:22.797Z,102885.88
2023-04-18T11:12:06.808Z,102879.44
2023-04-18T11:14:53.586Z,102884.44
2023-04-18T11:17:28.563Z,102869.47
2023-04-18T11:20:01.925Z,102862.00
2023-04-18T11:22:28.422Z,102879.22
2023-04-18T11:25:01.736Z,102870.72
2023-04-18T11:27:29.654Z,102870.69
2023-04-18T11:29:56.227Z,102886.47
2023-04-18T11:32:23.423Z,102867.72
2023-04-18T11:34:54.133Z,102879.41
2023-04-18T11:37:21.121Z,102881.06
2023-04-18T11:39:47.674Z,102895.78
2023-04-18T11:42:14.116Z,102865.28
2023-04-18T11:44:43.782Z,102876.53
2023-04-18T11:47:26.796Z,102865.41
2023-04-18T11:49:57.770Z,102876.16
2023-04-18T11:52:24.994Z,102865.47
2023-04-18T11:54:51.454Z,102870.09
2023-04-18T11:57:25.958Z,102860.56
2023-04-18T11:59:54.177Z,102867.25
2023-04-18T12:02:22.392Z,102875.50
2023-04-18T12:05:00.055Z,102886.84
2023-04-18T12:07:34.854Z,102875.06
2023-04-18T12:10:01.721Z,102862.63
2023-04-18T12:12:28.227Z,102873.38
2023-04-18T12:15:06.532Z,102855.47
2023-04-18T12:17:32.953Z,102858.75
2023-04-18T12:20:05.717Z,102861.41
2023-04-18T12:22:40.242Z,102860.13
2023-04-18T12:25:14.011Z,102857.09
2023-04-18T12:27:53.993Z,102864.22
2023-04-18T12:30:24.733Z,102856.84
2023-04-18T12:32:53.506Z,102854.03
2023-04-18T12:35:20.859Z,102864.09
2023-04-18T12:37:48.450Z,102865.16
2023-04-18T12:40:15.587Z,102854.69
2023-04-18T12:42:42.526Z,102858.97
2023-04-18T12:45:10.533Z,102849.78
2023-04-18T12:47:41.626Z,102850.22
2023-04-18T12:50:11.358Z,102854.94
2023-04-18T12:52:39.419Z,102861.13
2023-04-18T12:55:09.406Z,102862.16
2023-04-18T12:57:36.278Z,102857.09
2023-04-18T13:00:06.370Z,102856.63
2023-04-18T13:02:35.285Z,102870.69
2023-04-18T13:05:01.934Z,102856.56
2023-04-18T13:07:28.407Z,102853.91
2023-04-18T13:09:54.805Z,102844.56
2023-04-18T13:12:21.337Z,102843.19
2023-04-18T13:14:47.768Z,102845.13
2023-04-18T13:17:14.166Z,102853.53
2023-04-18T13:19:41.476Z,102846.53
2023-04-18T13:22:08.026Z,102845.63
2023-04-18T13:24:34.451Z,102848.03
2023-04-18T13:27:02.503Z,102837.78
2023-04-18T13:29:28.952Z,102856.09
2023-04-18T13:31:55.440Z,102846.28
2023-04-18T13:34:21.855Z,102852.78
2023-04-18T13:36:48.290Z,102835.59
2023-04-18T13:39:15.228Z,102840.22
2023-04-18T13:41:41.788Z,102832.78
2023-04-18T13:44:08.189Z,102835.84
2023-04-18T13:46:34.873Z,102834.78
2023-04-18T13:49:01.405Z,102840.97
2023-04-18T13:51:27.798Z,102835.75
2023-04-18T13:53:54.212Z,102841.75
2023-04-18T13:56:20.827Z,102845.78
2023-04-18T13:58:47.375Z,102832.47
2023-04-18T14:01:14.112Z,102827.75
2023-04-18T14:03:43.601Z,102820.91
2023-04-18T14:06:11.049Z,102834.22
2023-04-18T14:08:37.553Z,102822.47
2023-04-18T14:11:04.089Z,102827.50
2023-04-18T14:13:30.629Z,102834.44
2023-04-18T14:15:57.147Z,102829.50
2023-04-18T14:18:24.602Z,102834.41
2023-04-18T14:20:51.352Z,102821.50
2023-04-18T14:23:18.247Z,102825.22
2023-04-18T14:25:44.753Z,102827.13
2023-04-18T14:28:11.986Z,102820.56
2023-04-18T14:30:39.672Z,102834.56
2023-04-18T14:33:07.409Z,102810.78
2023-04-18T14:35:33.826Z,102823.06
2023-04-18T14:38:00.316Z,102818.78
2023-04-18T14:40:27.129Z,102827.72
2023-04-18T14:42:53.771Z,102822.91
2023-04-18T14:45:20.237Z,102830.72
2023-04-18T14:47:46.802Z,102822.44
2023-04-18T14:50:13.450Z,102825.44
2023-04-18T14:52:40.529Z,102818.25
2023-04-18T14:55:08.171Z,102819.00
2023-04-18T14:57:36.344Z,102812.88
2023-04-18T15:00:05.469Z,102814.41
2023-04-18T15:02:32.279Z,102806.28
2023-04-18T15:04:59.216Z,102802.88
2023-04-18T15:07:25.738Z,102800.03
2023-04-18T15:09:52.162Z,102794.50
2023-04-18T15:12:18.574Z,102795.34
2023-04-18T15:14:45.248Z,102792.56
2023-04-18T15:17:11.659Z,102794.38
2023-04-18T15:19:38.041Z,102803.66
2023-04-18T15:22:04.513Z,102799.75
2023-04-18T15:24:30.924Z,102792.97
2023-04-18T15:26:58.632Z,102793.59
2023-04-18T15:29:25.192Z,102795.06
2023-04-18T15:31:51.906Z,102796.47
2023-04-18T15:34:18.483Z,102802.31
2023-04-18T15:36:46.845Z,102794.72
2023-04-18T15:39:13.229Z,102806.63
2023-04-18T15:41:41.976Z,102800.69
2023-04-18T15:44:08.587Z,102783.56
2023-04-18T15:46:36.647Z,102795.34
2023-04-18T15:49:03.114Z,102799.03
2023-04-18T15:51:30.278Z,102804.75
2023-04-18T15:53:56.732Z,102797.91
2023-04-18T15:56:26.089Z,102808.41
2023-04-18T15:58:54.830Z,102812.63
2023-04-18T16:01:21.262Z,102809.41
2023-04-18T16:03:47.745Z,102805.59
2023-04-18T16:06:14.952Z,102808.03
2023-04-18T16:08:41.580Z,102804.13
2023-04-18T16:11:08.627Z,102802.16
2023-04-18T16:13:38.434Z,102794.53
2023-04-18T16:16:05.867Z,102800.44
2023-04-18T16:18:32.491Z,102798.09
2023-04-18T16:20:59.257Z,102798.66
2023-04-18T16:23:26.294Z,102809.44
2023-04-18T16:25:56.227Z,102803.59
2023-04-18T16:28:22.818Z,102804.66
2023-04-18T16:30:50.007Z,102806.06
2023-04-18T16:33:16.640Z,102795.34
2023-04-18T16:35:43.169Z,102799.06
2023-04-18T16:38:09.556Z,102806.84
2023-04-18T16:40:35.987Z,102804.38
2023-04-18T16:43:02.372Z,102807.19
2023-04-18T16:45:28.825Z,102804.28
2023-04-18T16:47:55.262Z,102804.38
2023-04-18T16:50:22.493Z,102804.25
2023-04-18T16:52:48.931Z,102804.75
2023-04-18T16:55:15.309Z,102812.31
2023-04-18T16:57:41.717Z,102809.22
2023-04-18T17:00:10.030Z,102809.00
2023-04-18T17:02:39.515Z,102804.25
2023-04-18T17:05:06.719Z,102802.41
2023-04-18T17:07:33.114Z,102818.09
2023-04-18T17:09:59.473Z,102804.47
2023-04-18T17:12:26.026Z,102808.66
2023-04-18T17:14:52.742Z,102817.41
2023-04-18T17:17:19.137Z,102820.03
2023-04-18T17:19:46.432Z,102813.56
2023-04-18T17:22:12.868Z,102805.75
2023-04-18T17:24:39.269Z,102809.16
2023-04-18T17:27:05.707Z,102819.97
2023-04-18T17:29:32.086Z,102817.91
2023-04-18T17:31:58.569Z,102826.41
2023-04-18T17:34:25.046Z,102812.50
2023-04-18T17:36:51.579Z,102813.47
2023-04-18T17:39:18.155Z,102813.84
2023-04-18T17:41:45.088Z,102823.00
2023-04-18T17:44:11.477Z,102825.66
2023-04-18T17:46:37.994Z,102818.38
2023-04-18T17:49:04.685Z,102824.78
2023-04-18T17:51:31.309Z,102827.91
2023-04-18T17:53:57.688Z,102835.94
2023-04-18T17:56:24.339Z,102840.16
2023-04-18T17:58:51.450Z,102833.28
2023-04-18T18:01:19.801Z,102840.06
2023-04-18T18:03:47.171Z,102852.31
2023-04-18T18:06:14.855Z,102842.69
2023-04-18T18:08:42.658Z,102843.56
2023-04-18T18:11:09.805Z,102840.16
2023-04-18T18:13:36.379Z,102847.13
2023-04-18T18:16:02.968Z,102847.34
2023-04-18T18:18:29.738Z,102850.84
2023-04-18T18:20:57.920Z,102856.53
2023-04-18T18:23:24.840Z,102852.38
2023-04-18T18:25:52.071Z,102854.03
2023-04-18T18:28:18.717Z,102844.00
2023-04-18T18:30:45.223Z,102856.31
2023-04-18T18:33:11.695Z,102858.75
2023-04-18T18:35:38.211Z,102866.25
2023-04-18T18:38:04.690Z,102867.13
2023-04-18T18:40:31.090Z,102870.25
2023-04-18T18:42:57.512Z,102868.13
2023-04-18T18:45:24.143Z,102865.88
2023-04-18T18:47:51.098Z,102879.72
2023-04-18T18:50:17.696Z,102871.69
2023-04-18T18:52:44.122Z,102872.19
2023-04-18T18:55:11.126Z,102879.31
2023-04-18T18:57:37.792Z,102882.38
2023-04-18T19:00:11.433Z,102877.38
2023-04-18T19:02:38.709Z,102883.94
2023-04-18T19:05:05.896Z,102884.19
2023-04-18T19:07:32.448Z,102881.25
2023-04-18T19:10:00.496Z,102884.47
2023-04-18T19:12:27.848Z,102886.41
2023-04-18T19:14:54.263Z,102881.94
2023-04-18T19:17:24.508Z,102901.66
2023-04-18T19:19:52.037Z,102898.09
2023-04-18T19:22:18.477Z,102899.22
2023-04-18T19:24:44.868Z,102900.50
2023-04-18T19:27:11.240Z,102900.25
2023-04-18T19:29:37.621Z,102901.22
2023-04-18T19:32:04.325Z,102895.69
2023-04-18T19:34:30.755Z,102909.13
2023-04-18T19:36:57.153Z,102916.53
2023-04-18T19:39:23.540Z,102912.28
2023-04-18T19:41:49.961Z,102907.84
2023-04-18T19:44:16.383Z,102929.44
2023-04-18T19:46:42.851Z,102906.75
2023-04-18T19:49:09.228Z,102924.63
2023-04-18T19:51:35.661Z,102914.88
2023-04-18T19:54:02.111Z,102910.75
2023-04-18T19:56:28.491Z,102907.69
2023-04-18T19:58:55.192Z,102899.38
2023-04-18T20:01:21.783Z,102917.53
2023-04-18T20:03:48.656Z,102911.09
2023-04-18T20:06:16.375Z,102916.91
2023-04-18T20:08:42.874Z,102909.66
2023-04-18T20:11:10.663Z,102906.97
2023-04-18T20:13:37.794Z,102914.63
2023-04-18T20:16:05.408Z,102918.13
2023-04-18T20:18:32.148Z,102911.75
2023-04-18T20:20:58.633Z,102919.19
2023-04-18T20:23:25.500Z,102918.41
2023-04-18T20:25:51.873Z,102913.28
2023-04-18T20:28:18.259Z,102917.91
2023-04-18T20:30:45.673Z,102911.47
2023-04-18T20:33:12.187Z,102926.22
2023-04-18T20:35:39.014Z,102910.22
2023-04-18T20:38:06.688Z,102916.91
2023-04-18T20:40:34.235Z,102914.91
2023-04-18T20:43:02.934Z,102924.28
2023-04-18T20:45:29.987Z,102921.50
2023-04-18T20:47:58.378Z,102919.16
2023-04-18T20:50:24.861Z,102922.19
2023-04-18T20:52:51.568Z,102920.88
2023-04-18T20:55:18.068Z,102919.97
2023-04-18T20:57:44.597Z,102914.69
2023-04-18T21:00:11.872Z,102917.84
2023-04-18T21:02:38.406Z,102923.28
2023-04-18T21:05:05.247Z,102927.13
2023-04-18T21:07:32.443Z,102921.28
2023-04-18T21:09:58.968Z,102927.66
2023-04-18T21:12:25.514Z,102923.44
2023-04-18T21:14:52.184Z,102931.13
2023-04-18T21:17:18.950Z,102936.50
2023-04-18T21:19:48.969Z,102937.63
2023-04-18T21:22:15.998Z,102941.00
2023-04-18T21:24:43.247Z,102935.84
2023-04-18T21:27:12.581Z,102933.34
2023-04-18T21:29:41.082Z,102940.38
2023-04-18T21:32:07.516Z,102929.59
2023-04-18T21:34:33.891Z,102932.63
2023-04-18T21:37:00.668Z,102930.16
2023-04-18T21:39:27.247Z,102938.41
2023-04-18T21:41:53.679Z,102929.94
2023-04-18T21:44:20.147Z,102940.91
2023-04-18T21:46:46.585Z,102935.81
2023-04-18T21:49:13.336Z,102935.94
2023-04-18T21:51:39.777Z,102944.22
2023-04-18T21:54:07.328Z,102936.47
2023-04-18T21:56:33.701Z,102945.72
2023-04-18T21:59:00.269Z,102937.69
2023-04-18T22:01:26.955Z,102939.31
2023-04-18T22:03:53.863Z,102941.53
2023-04-18T22:06:20.777Z,102943.22
2023-04-18T22:08:48.176Z,102936.69
2023-04-18T22:11:15.695Z,102946.41
2023-04-18T22:13:44.850Z,102946.00
2023-04-18T22:16:11.509Z,102942.16
2023-04-18T22:18:38.252Z,102940.44
2023-04-18T22:21:04.815Z,102941.09
2023-04-18T22:23:31.485Z,102945.16
2023-04-18T22:25:57.891Z,102944.63
2023-04-18T22:28:24.620Z,102945.91
2023-04-18T22:30:51.286Z,102951.75
2023-04-18T22:33:17.830Z,102940.34
2023-04-18T22:35:44.519Z,102944.84
2023-04-18T22:38:10.934Z,102945.47
2023-04-18T22:40:37.412Z,102955.25
2023-04-18T22:43:03.843Z,102948.41
2023-04-18T22:45:30.313Z,102951.97
2023-04-18T22:47:57.040Z,102945.34
2023-04-18T22:50:23.576Z,102943.13
2023-04-18T22:52:51.003Z,102952.09
2023-04-18T22:55:17.454Z,102950.16
2023-04-18T22:57:43.868Z,102948.84
2023-04-18T23:00:11.026Z,102943.06
2023-04-18T23:02:37.763Z,102940.94
2023-04-18T23:05:05.984Z,102947.94
2023-04-18T23:07:32.384Z,102946.91
2023-04-18T23:09:58.991Z,102939.41
2023-04-18T23:12:26.699Z,102945.28
2023-04-18T23:14:53.124Z,102949.69
2023-04-18T23:17:19.593Z,102947.28
2023-04-18T23:19:46.101Z,102951.25
2023-04-18T23:22:12.487Z,102938.19
2023-04-18T23:24:38.938Z,102948.16
2023-04-18T23:27:05.328Z,102945.03
2023-04-18T23:29:31.720Z,102946.66
2023-04-18T23:31:58.196Z,102947.53
2023-04-18T23:34:24.619Z,102950.69
2023-04-18T23:36:50.974Z,102955.56
2023-04-18T23:39:18.519Z,102964.09
2023-04-18T23:41:45.561Z,102960.09
2023-04-18T23:44:11.956Z,102966.56
2023-04-18T23:46:38.391Z,102958.69
2023-04-18T23:49:04.702Z,102957.47
2023-04-18T23:51:31.094Z,102961.38
2023-04-18T23:53:57.475Z,102958.28
2023-04-18T23:56:24.130Z,102968.25
2023-04-18T23:58:50.547Z,102957.16
